sensor_id;sensor_type;location;lat;lon;timestamp;temperature;humidity
45329;DHT22;31063;48.356;10.896;2022-08-19T00:02:09;18.30;99.90
45329;DHT22;31063;48.356;10.896;2022-08-19T00:04:35;18.30;99.90
45329;DHT22;31063;48.356;10.896;2022-08-19T00:07:02;18.30;99.90
45329;DHT22;31063;48.356;10.896;2022-08-19T00:09:28;18.30;99.90
45329;DHT22;31063;48.356;10.896;2022-08-19T00:11:54;18.30;99.90
45329;DHT22;31063;48.356;10.896;2022-08-19T00:14:21;18.30;99.90
45329;DHT22;31063;48.356;10.896;2022-08-19T00:16:47;18.30;99.90
45329;DHT22;31063;48.356;10.896;2022-08-19T00:19:13;18.30;99.90
45329;DHT22;31063;48.356;10.896;2022-08-19T00:21:39;18.30;99.90
45329;DHT22;31063;48.356;10.896;2022-08-19T00:24:08;18.30;99.90
45329;DHT22;31063;48.356;10.896;2022-08-19T00:26:34;18.30;99.90
45329;DHT22;31063;48.356;10.896;2022-08-19T00:28:59;18.20;99.90
45329;DHT22;31063;48.356;10.896;2022-08-19T00:31:26;18.30;99.90
45329;DHT22;31063;48.356;10.896;2022-08-19T00:33:53;18.20;99.90
45329;DHT22;31063;48.356;10.896;2022-08-19T00:36:18;18.20;99.90
45329;DHT22;31063;48.356;10.896;2022-08-19T00:38:44;18.20;99.90
45329;DHT22;31063;48.356;10.896;2022-08-19T00:41:12;18.20;99.90
45329;DHT22;31063;48.356;10.896;2022-08-19T00:43:37;18.10;99.90
45329;DHT22;31063;48.356;10.896;2022-08-19T00:46:04;18.00;99.90
45329;DHT22;31063;48.356;10.896;2022-08-19T00:48:30;18.00;99.90
45329;DHT22;31063;48.356;10.896;2022-08-19T00:50:55;18.00;99.90
45329;DHT22;31063;48.356;10.896;2022-08-19T00:53:22;18.00;99.90
45329;DHT22;31063;48.356;10.896;2022-08-19T00:55:49;17.90;99.90
45329;DHT22;31063;48.356;10.896;2022-08-19T00:58:22;17.90;99.90
45329;DHT22;31063;48.356;10.896;2022-08-19T01:00:49;17.90;99.90
45329;DHT22;31063;48.356;10.896;2022-08-19T01:03:17;17.90;99.90
45329;DHT22;31063;48.356;10.896;2022-08-19T01:05:43;17.80;99.90
45329;DHT22;31063;48.356;10.896;2022-08-19T01:08:09;17.80;99.90
45329;DHT22;31063;48.356;10.896;2022-08-19T01:10:37;17.80;99.90
45329;DHT22;31063;48.356;10.896;2022-08-19T01:13:05;17.90;99.90
45329;DHT22;31063;48.356;10.896;2022-08-19T01:15:32;17.80;99.90
45329;DHT22;31063;48.356;10.896;2022-08-19T01:18:04;17.80;99.90
45329;DHT22;31063;48.356;10.896;2022-08-19T01:20:30;17.80;99.90
45329;DHT22;31063;48.356;10.896;2022-08-19T01:22:57;17.90;99.90
45329;DHT22;31063;48.356;10.896;2022-08-19T01:25:32;17.90;99.90
45329;DHT22;31063;48.356;10.896;2022-08-19T01:27:59;17.90;99.90
45329;DHT22;31063;48.356;10.896;2022-08-19T01:30:27;17.90;99.90
45329;DHT22;31063;48.356;10.896;2022-08-19T01:32:53;17.90;99.90
45329;DHT22;31063;48.356;10.896;2022-08-19T01:35:19;17.90;99.90
45329;DHT22;31063;48.356;10.896;2022-08-19T01:37:46;17.90;99.90
45329;DHT22;31063;48.356;10.896;2022-08-19T01:40:12;17.90;99.90
45329;DHT22;31063;48.356;10.896;2022-08-19T01:42:38;17.80;99.90
45329;DHT22;31063;48.356;10.896;2022-08-19T01:45:04;17.80;99.90
45329;DHT22;31063;48.356;10.896;2022-08-19T01:47:30;17.80;99.90
45329;DHT22;31063;48.356;10.896;2022-08-19T01:49:57;17.80;99.90
45329;DHT22;31063;48.356;10.896;2022-08-19T01:52:23;17.80;99.90
45329;DHT22;31063;48.356;10.896;2022-08-19T01:54:48;17.90;99.90
45329;DHT22;31063;48.356;10.896;2022-08-19T01:57:14;17.90;99.90
45329;DHT22;31063;48.356;10.896;2022-08-19T01:59:40;17.90;99.90
45329;DHT22;31063;48.356;10.896;2022-08-19T02:02:06;17.90;99.90
45329;DHT22;31063;48.356;10.896;2022-08-19T02:04:33;17.80;99.90
45329;DHT22;31063;48.356;10.896;2022-08-19T02:06:59;17.80;99.90
45329;DHT22;31063;48.356;10.896;2022-08-19T02:09:25;17.80;99.90
45329;DHT22;31063;48.356;10.896;2022-08-19T02:11:50;17.80;99.90
45329;DHT22;31063;48.356;10.896;2022-08-19T02:14:16;17.80;99.90
45329;DHT22;31063;48.356;10.896;2022-08-19T02:16:41;17.90;99.90
45329;DHT22;31063;48.356;10.896;2022-08-19T02:19:07;17.90;99.90
45329;DHT22;31063;48.356;10.896;2022-08-19T02:21:32;17.80;99.90
45329;DHT22;31063;48.356;10.896;2022-08-19T02:23:58;17.80;99.90
45329;DHT22;31063;48.356;10.896;2022-08-19T02:26:24;17.80;99.90
45329;DHT22;31063;48.356;10.896;2022-08-19T02:28:52;17.80;99.90
45329;DHT22;31063;48.356;10.896;2022-08-19T02:31:19;17.80;99.90
45329;DHT22;31063;48.356;10.896;2022-08-19T02:33:45;17.90;99.90
45329;DHT22;31063;48.356;10.896;2022-08-19T02:36:11;17.90;99.90
45329;DHT22;31063;48.356;10.896;2022-08-19T02:38:37;17.90;99.90
45329;DHT22;31063;48.356;10.896;2022-08-19T02:41:09;17.90;99.90
45329;DHT22;31063;48.356;10.896;2022-08-19T02:43:36;17.90;99.90
45329;DHT22;31063;48.356;10.896;2022-08-19T02:48:58;17.90;99.90
45329;DHT22;31063;48.356;10.896;2022-08-19T02:51:28;17.80;99.90
45329;DHT22;31063;48.356;10.896;2022-08-19T02:53:54;17.90;99.90
45329;DHT22;31063;48.356;10.896;2022-08-19T02:56:20;17.80;99.90
45329;DHT22;31063;48.356;10.896;2022-08-19T02:58:46;17.80;99.90
45329;DHT22;31063;48.356;10.896;2022-08-19T03:01:18;17.80;99.90
45329;DHT22;31063;48.356;10.896;2022-08-19T03:03:44;17.70;99.90
45329;DHT22;31063;48.356;10.896;2022-08-19T03:06:12;17.70;99.90
45329;DHT22;31063;48.356;10.896;2022-08-19T03:08:39;17.70;99.90
45329;DHT22;31063;48.356;10.896;2022-08-19T03:11:04;17.70;99.90
45329;DHT22;31063;48.356;10.896;2022-08-19T03:13:30;17.70;99.90
45329;DHT22;31063;48.356;10.896;2022-08-19T03:15:56;17.70;99.90
45329;DHT22;31063;48.356;10.896;2022-08-19T03:18:22;17.70;99.90
45329;DHT22;31063;48.356;10.896;2022-08-19T03:20:48;17.70;99.90
45329;DHT22;31063;48.356;10.896;2022-08-19T03:23:14;17.60;99.90
45329;DHT22;31063;48.356;10.896;2022-08-19T03:25:41;17.60;99.90
45329;DHT22;31063;48.356;10.896;2022-08-19T03:28:09;17.60;99.90
45329;DHT22;31063;48.356;10.896;2022-08-19T03:30:34;17.60;99.90
45329;DHT22;31063;48.356;10.896;2022-08-19T03:33:00;17.60;99.90
45329;DHT22;31063;48.356;10.896;2022-08-19T03:35:25;17.60;99.90
45329;DHT22;31063;48.356;10.896;2022-08-19T03:37:51;17.60;99.90
45329;DHT22;31063;48.356;10.896;2022-08-19T03:40:18;17.50;99.90
45329;DHT22;31063;48.356;10.896;2022-08-19T03:42:44;17.60;99.90
45329;DHT22;31063;48.356;10.896;2022-08-19T03:45:11;17.60;99.90
45329;DHT22;31063;48.356;10.896;2022-08-19T03:47:37;17.50;99.90
45329;DHT22;31063;48.356;10.896;2022-08-19T03:50:03;17.50;99.90
45329;DHT22;31063;48.356;10.896;2022-08-19T03:52:29;17.50;99.90
45329;DHT22;31063;48.356;10.896;2022-08-19T03:54:55;17.50;99.90
45329;DHT22;31063;48.356;10.896;2022-08-19T03:57:20;17.50;99.90
45329;DHT22;31063;48.356;10.896;2022-08-19T03:59:46;17.50;99.90
45329;DHT22;31063;48.356;10.896;2022-08-19T04:02:11;17.50;99.90
45329;DHT22;31063;48.356;10.896;2022-08-19T04:04:38;17.50;99.90
45329;DHT22;31063;48.356;10.896;2022-08-19T04:07:04;17.50;99.90
45329;DHT22;31063;48.356;10.896;2022-08-19T04:09:29;17.50;99.90
45329;DHT22;31063;48.356;10.896;2022-08-19T04:11:55;17.40;99.90
45329;DHT22;31063;48.356;10.896;2022-08-19T04:14:26;17.50;99.90
45329;DHT22;31063;48.356;10.896;2022-08-19T04:16:53;17.50;99.90
45329;DHT22;31063;48.356;10.896;2022-08-19T04:19:19;17.50;99.90
45329;DHT22;31063;48.356;10.896;2022-08-19T04:21:46;17.50;99.90
45329;DHT22;31063;48.356;10.896;2022-08-19T04:24:12;17.50;99.90
45329;DHT22;31063;48.356;10.896;2022-08-19T04:26:38;17.50;99.90
45329;DHT22;31063;48.356;10.896;2022-08-19T04:29:06;17.50;99.90
45329;DHT22;31063;48.356;10.896;2022-08-19T04:31:32;17.50;99.90
45329;DHT22;31063;48.356;10.896;2022-08-19T04:34:02;17.50;99.90
45329;DHT22;31063;48.356;10.896;2022-08-19T04:36:29;17.50;99.90
45329;DHT22;31063;48.356;10.896;2022-08-19T04:38:56;17.60;99.90
45329;DHT22;31063;48.356;10.896;2022-08-19T04:41:22;17.60;99.90
45329;DHT22;31063;48.356;10.896;2022-08-19T04:44:06;17.60;99.90
45329;DHT22;31063;48.356;10.896;2022-08-19T04:46:32;17.60;99.90
45329;DHT22;31063;48.356;10.896;2022-08-19T04:48:58;17.60;99.90
45329;DHT22;31063;48.356;10.896;2022-08-19T04:51:24;17.70;99.90
45329;DHT22;31063;48.356;10.896;2022-08-19T04:53:50;17.70;99.90
45329;DHT22;31063;48.356;10.896;2022-08-19T04:56:18;17.70;99.90
45329;DHT22;31063;48.356;10.896;2022-08-19T04:58:44;17.70;99.90
45329;DHT22;31063;48.356;10.896;2022-08-19T05:01:14;17.70;99.90
45329;DHT22;31063;48.356;10.896;2022-08-19T05:03:39;17.70;99.90
45329;DHT22;31063;48.356;10.896;2022-08-19T05:06:09;17.70;99.90
45329;DHT22;31063;48.356;10.896;2022-08-19T05:08:36;17.70;99.90
45329;DHT22;31063;48.356;10.896;2022-08-19T05:11:06;17.70;99.90
45329;DHT22;31063;48.356;10.896;2022-08-19T05:13:32;17.70;99.90
45329;DHT22;31063;48.356;10.896;2022-08-19T05:15:58;17.70;99.90
45329;DHT22;31063;48.356;10.896;2022-08-19T05:18:24;17.60;99.90
45329;DHT22;31063;48.356;10.896;2022-08-19T05:21:09;17.60;99.90
45329;DHT22;31063;48.356;10.896;2022-08-19T05:23:54;17.70;99.90
45329;DHT22;31063;48.356;10.896;2022-08-19T05:26:20;17.70;99.90
45329;DHT22;31063;48.356;10.896;2022-08-19T05:28:45;17.70;99.90
45329;DHT22;31063;48.356;10.896;2022-08-19T05:31:10;17.70;99.90
45329;DHT22;31063;48.356;10.896;2022-08-19T05:33:36;17.80;99.90
45329;DHT22;31063;48.356;10.896;2022-08-19T05:36:03;17.80;99.90
45329;DHT22;31063;48.356;10.896;2022-08-19T05:38:29;17.80;99.90
45329;DHT22;31063;48.356;10.896;2022-08-19T05:40:55;17.80;99.90
45329;DHT22;31063;48.356;10.896;2022-08-19T05:43:21;17.80;99.90
45329;DHT22;31063;48.356;10.896;2022-08-19T05:45:46;17.80;99.90
45329;DHT22;31063;48.356;10.896;2022-08-19T05:48:12;17.80;99.90
45329;DHT22;31063;48.356;10.896;2022-08-19T05:50:39;17.80;99.90
45329;DHT22;31063;48.356;10.896;2022-08-19T05:53:05;17.90;99.90
45329;DHT22;31063;48.356;10.896;2022-08-19T05:55:31;17.80;99.90
45329;DHT22;31063;48.356;10.896;2022-08-19T05:57:56;17.90;99.90
45329;DHT22;31063;48.356;10.896;2022-08-19T06:00:22;17.90;99.90
45329;DHT22;31063;48.356;10.896;2022-08-19T06:02:48;17.90;99.90
45329;DHT22;31063;48.356;10.896;2022-08-19T06:05:13;17.90;99.90
45329;DHT22;31063;48.356;10.896;2022-08-19T06:07:39;17.90;99.90
45329;DHT22;31063;48.356;10.896;2022-08-19T06:10:06;17.90;99.90
45329;DHT22;31063;48.356;10.896;2022-08-19T06:12:33;17.90;99.90
45329;DHT22;31063;48.356;10.896;2022-08-19T06:15:00;17.90;99.90
45329;DHT22;31063;48.356;10.896;2022-08-19T06:17:26;17.90;99.90
45329;DHT22;31063;48.356;10.896;2022-08-19T06:19:52;18.00;99.90
45329;DHT22;31063;48.356;10.896;2022-08-19T06:22:17;17.90;99.90
45329;DHT22;31063;48.356;10.896;2022-08-19T06:24:43;18.00;99.90
45329;DHT22;31063;48.356;10.896;2022-08-19T06:27:08;18.00;99.90
45329;DHT22;31063;48.356;10.896;2022-08-19T06:29:34;18.00;99.90
45329;DHT22;31063;48.356;10.896;2022-08-19T06:32:01;18.00;99.90
45329;DHT22;31063;48.356;10.896;2022-08-19T06:34:28;18.10;99.90
45329;DHT22;31063;48.356;10.896;2022-08-19T06:36:54;18.10;99.90
45329;DHT22;31063;48.356;10.896;2022-08-19T06:39:26;18.10;99.90
45329;DHT22;31063;48.356;10.896;2022-08-19T06:41:53;18.10;99.90
45329;DHT22;31063;48.356;10.896;2022-08-19T06:44:20;18.10;99.90
45329;DHT22;31063;48.356;10.896;2022-08-19T06:46:46;18.10;99.90
45329;DHT22;31063;48.356;10.896;2022-08-19T06:49:12;18.10;99.90
45329;DHT22;31063;48.356;10.896;2022-08-19T06:51:43;18.10;99.90
45329;DHT22;31063;48.356;10.896;2022-08-19T06:54:08;18.10;99.90
45329;DHT22;31063;48.356;10.896;2022-08-19T06:56:34;18.10;99.90
45329;DHT22;31063;48.356;10.896;2022-08-19T06:59:01;18.10;99.90
45329;DHT22;31063;48.356;10.896;2022-08-19T07:01:27;18.20;99.90
45329;DHT22;31063;48.356;10.896;2022-08-19T07:03:52;18.10;99.90
45329;DHT22;31063;48.356;10.896;2022-08-19T07:06:18;18.10;99.90
45329;DHT22;31063;48.356;10.896;2022-08-19T07:08:45;18.10;99.90
45329;DHT22;31063;48.356;10.896;2022-08-19T07:11:13;18.10;99.90
45329;DHT22;31063;48.356;10.896;2022-08-19T07:13:39;18.10;99.90
45329;DHT22;31063;48.356;10.896;2022-08-19T07:16:06;18.10;99.90
45329;DHT22;31063;48.356;10.896;2022-08-19T07:18:31;18.10;99.90
45329;DHT22;31063;48.356;10.896;2022-08-19T07:21:30;18.10;99.90
45329;DHT22;31063;48.356;10.896;2022-08-19T07:23:50;18.20;99.90
45329;DHT22;31063;48.356;10.896;2022-08-19T07:28:42;18.10;99.90
45329;DHT22;31063;48.356;10.896;2022-08-19T07:31:27;18.20;99.90
45329;DHT22;31063;48.356;10.896;2022-08-19T07:33:53;18.10;99.90
45329;DHT22;31063;48.356;10.896;2022-08-19T07:36:25;18.10;99.90
45329;DHT22;31063;48.356;10.896;2022-08-19T07:38:51;18.10;99.90
45329;DHT22;31063;48.356;10.896;2022-08-19T07:41:18;18.20;99.90
45329;DHT22;31063;48.356;10.896;2022-08-19T07:43:44;18.10;99.90
45329;DHT22;31063;48.356;10.896;2022-08-19T07:46:11;18.10;99.90
45329;DHT22;31063;48.356;10.896;2022-08-19T07:48:37;18.10;99.90
45329;DHT22;31063;48.356;10.896;2022-08-19T07:51:04;18.00;99.90
45329;DHT22;31063;48.356;10.896;2022-08-19T07:53:30;18.10;99.90
45329;DHT22;31063;48.356;10.896;2022-08-19T07:55:56;18.10;99.90
45329;DHT22;31063;48.356;10.896;2022-08-19T07:58:28;18.10;99.90
45329;DHT22;31063;48.356;10.896;2022-08-19T08:00:54;18.00;99.90
45329;DHT22;31063;48.356;10.896;2022-08-19T08:03:20;18.00;99.90
45329;DHT22;31063;48.356;10.896;2022-08-19T08:05:46;18.00;99.90
45329;DHT22;31063;48.356;10.896;2022-08-19T08:08:30;18.00;99.90
45329;DHT22;31063;48.356;10.896;2022-08-19T08:11:15;18.00;99.90
45329;DHT22;31063;48.356;10.896;2022-08-19T08:13:41;18.00;99.90
45329;DHT22;31063;48.356;10.896;2022-08-19T08:16:07;18.00;99.90
45329;DHT22;31063;48.356;10.896;2022-08-19T08:18:33;18.00;99.90
45329;DHT22;31063;48.356;10.896;2022-08-19T08:20:59;18.00;99.90
45329;DHT22;31063;48.356;10.896;2022-08-19T08:23:25;18.00;99.90
45329;DHT22;31063;48.356;10.896;2022-08-19T08:25:51;17.90;99.90
45329;DHT22;31063;48.356;10.896;2022-08-19T08:28:17;17.90;99.90
45329;DHT22;31063;48.356;10.896;2022-08-19T08:30:43;18.00;99.90
45329;DHT22;31063;48.356;10.896;2022-08-19T08:33:10;18.00;99.90
45329;DHT22;31063;48.356;10.896;2022-08-19T08:35:36;18.00;99.90
45329;DHT22;31063;48.356;10.896;2022-08-19T08:38:02;18.00;99.90
45329;DHT22;31063;48.356;10.896;2022-08-19T08:43:13;18.00;99.90
45329;DHT22;31063;48.356;10.896;2022-08-19T08:45:55;18.00;99.90
45329;DHT22;31063;48.356;10.896;2022-08-19T08:48:27;18.10;99.90
45329;DHT22;31063;48.356;10.896;2022-08-19T08:50:56;18.10;99.90
45329;DHT22;31063;48.356;10.896;2022-08-19T08:53:22;18.10;99.90
45329;DHT22;31063;48.356;10.896;2022-08-19T08:55:48;18.10;99.90
45329;DHT22;31063;48.356;10.896;2022-08-19T08:58:18;18.10;99.90
45329;DHT22;31063;48.356;10.896;2022-08-19T09:00:46;18.10;99.90
45329;DHT22;31063;48.356;10.896;2022-08-19T09:06:00;18.00;99.90
45329;DHT22;31063;48.356;10.896;2022-08-19T09:10:53;18.00;99.90
45329;DHT22;31063;48.356;10.896;2022-08-19T09:15:47;18.00;99.90
45329;DHT22;31063;48.356;10.896;2022-08-19T09:18:13;18.00;99.90
45329;DHT22;31063;48.356;10.896;2022-08-19T09:20:39;18.00;99.90
45329;DHT22;31063;48.356;10.896;2022-08-19T09:23:04;18.00;99.90
45329;DHT22;31063;48.356;10.896;2022-08-19T09:25:30;18.10;99.90
45329;DHT22;31063;48.356;10.896;2022-08-19T09:27:57;18.00;99.90
45329;DHT22;31063;48.356;10.896;2022-08-19T09:30:28;18.00;99.90
45329;DHT22;31063;48.356;10.896;2022-08-19T09:32:54;18.10;99.90
45329;DHT22;31063;48.356;10.896;2022-08-19T09:35:21;18.00;99.90
45329;DHT22;31063;48.356;10.896;2022-08-19T09:37:47;18.10;99.90
45329;DHT22;31063;48.356;10.896;2022-08-19T09:40:14;18.10;99.90
45329;DHT22;31063;48.356;10.896;2022-08-19T09:42:40;18.00;99.90
45329;DHT22;31063;48.356;10.896;2022-08-19T09:45:08;18.10;99.90
45329;DHT22;31063;48.356;10.896;2022-08-19T09:47:34;18.00;99.90
45329;DHT22;31063;48.356;10.896;2022-08-19T09:50:06;18.00;99.90
45329;DHT22;31063;48.356;10.896;2022-08-19T09:52:32;18.00;99.90
45329;DHT22;31063;48.356;10.896;2022-08-19T09:54:58;18.00;99.90
45329;DHT22;31063;48.356;10.896;2022-08-19T09:57:24;18.00;99.90
45329;DHT22;31063;48.356;10.896;2022-08-19T09:59:49;18.00;99.90
45329;DHT22;31063;48.356;10.896;2022-08-19T10:02:15;18.10;99.90
45329;DHT22;31063;48.356;10.896;2022-08-19T10:04:40;18.00;99.90
45329;DHT22;31063;48.356;10.896;2022-08-19T10:07:24;18.00;99.90
45329;DHT22;31063;48.356;10.896;2022-08-19T10:09:50;18.00;99.90
45329;DHT22;31063;48.356;10.896;2022-08-19T10:12:15;18.00;99.90
45329;DHT22;31063;48.356;10.896;2022-08-19T10:14:41;18.00;99.90
45329;DHT22;31063;48.356;10.896;2022-08-19T10:17:07;18.00;99.90
45329;DHT22;31063;48.356;10.896;2022-08-19T10:19:32;18.00;99.90
45329;DHT22;31063;48.356;10.896;2022-08-19T10:22:04;18.00;99.90
45329;DHT22;31063;48.356;10.896;2022-08-19T10:24:31;18.00;99.90
45329;DHT22;31063;48.356;10.896;2022-08-19T10:26:56;18.00;99.90
45329;DHT22;31063;48.356;10.896;2022-08-19T10:29:22;18.00;99.90
45329;DHT22;31063;48.356;10.896;2022-08-19T10:31:47;17.90;99.90
45329;DHT22;31063;48.356;10.896;2022-08-19T10:34:13;17.90;99.90
45329;DHT22;31063;48.356;10.896;2022-08-19T10:36:39;17.90;99.90
45329;DHT22;31063;48.356;10.896;2022-08-19T10:39:06;18.00;99.90
45329;DHT22;31063;48.356;10.896;2022-08-19T10:41:33;17.90;99.90
45329;DHT22;31063;48.356;10.896;2022-08-19T10:44:01;17.90;99.90
45329;DHT22;31063;48.356;10.896;2022-08-19T10:46:27;17.80;99.90
45329;DHT22;31063;48.356;10.896;2022-08-19T10:48:53;17.80;99.90
45329;DHT22;31063;48.356;10.896;2022-08-19T10:51:19;17.80;99.90
45329;DHT22;31063;48.356;10.896;2022-08-19T10:54:04;17.70;99.90
45329;DHT22;31063;48.356;10.896;2022-08-19T10:56:30;17.50;99.90
45329;DHT22;31063;48.356;10.896;2022-08-19T10:59:15;17.40;99.90
45329;DHT22;31063;48.356;10.896;2022-08-19T11:01:41;17.30;99.90
45329;DHT22;31063;48.356;10.896;2022-08-19T11:04:07;17.20;99.90
45329;DHT22;31063;48.356;10.896;2022-08-19T11:06:41;17.20;99.90
45329;DHT22;31063;48.356;10.896;2022-08-19T11:09:08;17.10;99.90
45329;DHT22;31063;48.356;10.896;2022-08-19T11:11:36;17.10;99.90
45329;DHT22;31063;48.356;10.896;2022-08-19T11:14:06;17.10;99.90
45329;DHT22;31063;48.356;10.896;2022-08-19T11:16:31;17.10;99.90
45329;DHT22;31063;48.356;10.896;2022-08-19T11:18:58;17.00;99.90
45329;DHT22;31063;48.356;10.896;2022-08-19T11:21:25;17.00;99.90
45329;DHT22;31063;48.356;10.896;2022-08-19T11:23:51;17.00;99.90
45329;DHT22;31063;48.356;10.896;2022-08-19T11:26:17;17.00;99.90
45329;DHT22;31063;48.356;10.896;2022-08-19T11:28:43;17.00;99.90
45329;DHT22;31063;48.356;10.896;2022-08-19T11:31:10;17.00;99.90
45329;DHT22;31063;48.356;10.896;2022-08-19T11:33:36;17.10;99.90
45329;DHT22;31063;48.356;10.896;2022-08-19T11:36:02;17.10;99.90
45329;DHT22;31063;48.356;10.896;2022-08-19T11:38:27;17.10;99.90
45329;DHT22;31063;48.356;10.896;2022-08-19T11:40:54;17.10;99.90
45329;DHT22;31063;48.356;10.896;2022-08-19T11:43:19;17.10;99.90
45329;DHT22;31063;48.356;10.896;2022-08-19T11:45:45;17.00;99.90
45329;DHT22;31063;48.356;10.896;2022-08-19T11:48:13;17.00;99.90
45329;DHT22;31063;48.356;10.896;2022-08-19T11:50:39;17.00;99.90
45329;DHT22;31063;48.356;10.896;2022-08-19T11:53:06;17.00;99.90
45329;DHT22;31063;48.356;10.896;2022-08-19T11:55:31;17.00;99.90
45329;DHT22;31063;48.356;10.896;2022-08-19T11:57:57;17.00;99.90
45329;DHT22;31063;48.356;10.896;2022-08-19T12:00:23;17.00;99.90
45329;DHT22;31063;48.356;10.896;2022-08-19T12:02:48;16.90;99.90
45329;DHT22;31063;48.356;10.896;2022-08-19T12:05:14;16.90;99.90
45329;DHT22;31063;48.356;10.896;2022-08-19T12:07:39;16.90;99.90
45329;DHT22;31063;48.356;10.896;2022-08-19T12:10:08;16.90;99.90
45329;DHT22;31063;48.356;10.896;2022-08-19T12:12:34;16.90;99.90
45329;DHT22;31063;48.356;10.896;2022-08-19T12:15:00;16.90;99.90
45329;DHT22;31063;48.356;10.896;2022-08-19T12:17:25;17.00;99.90
45329;DHT22;31063;48.356;10.896;2022-08-19T12:20:00;17.00;99.90
45329;DHT22;31063;48.356;10.896;2022-08-19T12:22:36;17.00;99.90
45329;DHT22;31063;48.356;10.896;2022-08-19T12:25:02;17.00;99.90
45329;DHT22;31063;48.356;10.896;2022-08-19T12:27:28;17.00;99.90
45329;DHT22;31063;48.356;10.896;2022-08-19T12:29:54;17.00;99.90
45329;DHT22;31063;48.356;10.896;2022-08-19T12:32:19;17.00;99.90
45329;DHT22;31063;48.356;10.896;2022-08-19T12:34:46;17.10;99.90
45329;DHT22;31063;48.356;10.896;2022-08-19T12:37:12;17.10;99.90
45329;DHT22;31063;48.356;10.896;2022-08-19T12:39:39;17.10;99.90
45329;DHT22;31063;48.356;10.896;2022-08-19T12:42:06;17.10;99.90
45329;DHT22;31063;48.356;10.896;2022-08-19T12:44:33;17.10;99.90
45329;DHT22;31063;48.356;10.896;2022-08-19T12:46:59;17.10;99.90
45329;DHT22;31063;48.356;10.896;2022-08-19T12:49:26;17.20;99.90
45329;DHT22;31063;48.356;10.896;2022-08-19T12:51:52;17.20;99.90
45329;DHT22;31063;48.356;10.896;2022-08-19T12:54:17;17.20;99.90
45329;DHT22;31063;48.356;10.896;2022-08-19T12:56:43;17.20;99.90
45329;DHT22;31063;48.356;10.896;2022-08-19T12:59:10;17.30;99.90
45329;DHT22;31063;48.356;10.896;2022-08-19T13:01:36;17.20;99.90
45329;DHT22;31063;48.356;10.896;2022-08-19T13:04:02;17.20;99.90
45329;DHT22;31063;48.356;10.896;2022-08-19T13:06:28;17.30;99.90
45329;DHT22;31063;48.356;10.896;2022-08-19T13:08:54;17.30;99.90
45329;DHT22;31063;48.356;10.896;2022-08-19T13:11:19;17.40;99.90
45329;DHT22;31063;48.356;10.896;2022-08-19T13:13:47;17.50;99.90
45329;DHT22;31063;48.356;10.896;2022-08-19T13:16:13;17.50;99.90
45329;DHT22;31063;48.356;10.896;2022-08-19T13:18:40;17.60;99.90
45329;DHT22;31063;48.356;10.896;2022-08-19T13:21:08;17.60;99.90
45329;DHT22;31063;48.356;10.896;2022-08-19T13:23:35;17.50;99.90
45329;DHT22;31063;48.356;10.896;2022-08-19T13:26:05;17.50;99.90
45329;DHT22;31063;48.356;10.896;2022-08-19T13:28:31;17.50;99.90
45329;DHT22;31063;48.356;10.896;2022-08-19T13:31:20;17.50;99.90
45329;DHT22;31063;48.356;10.896;2022-08-19T13:34:04;17.50;99.90
45329;DHT22;31063;48.356;10.896;2022-08-19T13:36:34;17.40;99.90
45329;DHT22;31063;48.356;10.896;2022-08-19T13:38:59;17.50;99.90
45329;DHT22;31063;48.356;10.896;2022-08-19T13:41:25;17.50;99.90
45329;DHT22;31063;48.356;10.896;2022-08-19T13:43:52;17.50;99.90
45329;DHT22;31063;48.356;10.896;2022-08-19T13:46:17;17.50;99.90
45329;DHT22;31063;48.356;10.896;2022-08-19T13:48:43;17.60;99.90
45329;DHT22;31063;48.356;10.896;2022-08-19T13:51:08;17.60;99.90
45329;DHT22;31063;48.356;10.896;2022-08-19T13:53:35;17.60;99.90
45329;DHT22;31063;48.356;10.896;2022-08-19T13:56:06;17.60;99.90
45329;DHT22;31063;48.356;10.896;2022-08-19T13:58:32;17.60;99.90
45329;DHT22;31063;48.356;10.896;2022-08-19T14:00:57;17.60;99.90
45329;DHT22;31063;48.356;10.896;2022-08-19T14:03:24;17.60;99.90
45329;DHT22;31063;48.356;10.896;2022-08-19T14:05:50;17.60;99.90
45329;DHT22;31063;48.356;10.896;2022-08-19T14:08:16;17.60;99.90
45329;DHT22;31063;48.356;10.896;2022-08-19T14:10:42;17.60;99.90
45329;DHT22;31063;48.356;10.896;2022-08-19T14:13:09;17.60;99.90
45329;DHT22;31063;48.356;10.896;2022-08-19T14:15:35;17.60;99.90
45329;DHT22;31063;48.356;10.896;2022-08-19T14:18:02;17.60;99.90
45329;DHT22;31063;48.356;10.896;2022-08-19T14:20:28;17.60;99.90
45329;DHT22;31063;48.356;10.896;2022-08-19T14:22:54;17.60;99.90
45329;DHT22;31063;48.356;10.896;2022-08-19T14:25:24;17.60;99.90
45329;DHT22;31063;48.356;10.896;2022-08-19T14:27:49;17.60;99.90
45329;DHT22;31063;48.356;10.896;2022-08-19T14:30:17;17.50;99.90
45329;DHT22;31063;48.356;10.896;2022-08-19T14:32:43;17.50;99.90
45329;DHT22;31063;48.356;10.896;2022-08-19T14:35:09;17.60;99.90
45329;DHT22;31063;48.356;10.896;2022-08-19T14:37:35;17.50;99.90
45329;DHT22;31063;48.356;10.896;2022-08-19T14:40:01;17.50;99.90
45329;DHT22;31063;48.356;10.896;2022-08-19T14:42:27;17.50;99.90
45329;DHT22;31063;48.356;10.896;2022-08-19T14:44:52;17.60;99.90
45329;DHT22;31063;48.356;10.896;2022-08-19T14:47:19;17.50;99.90
45329;DHT22;31063;48.356;10.896;2022-08-19T14:49:44;17.60;99.90
45329;DHT22;31063;48.356;10.896;2022-08-19T14:52:09;17.60;99.90
45329;DHT22;31063;48.356;10.896;2022-08-19T14:54:35;17.60;99.90
45329;DHT22;31063;48.356;10.896;2022-08-19T14:57:00;17.60;99.90
45329;DHT22;31063;48.356;10.896;2022-08-19T14:59:26;17.60;99.90
45329;DHT22;31063;48.356;10.896;2022-08-19T15:01:51;17.60;99.90
45329;DHT22;31063;48.356;10.896;2022-08-19T15:04:17;17.60;99.90
45329;DHT22;31063;48.356;10.896;2022-08-19T15:06:42;17.60;99.90
45329;DHT22;31063;48.356;10.896;2022-08-19T15:09:09;17.60;99.90
45329;DHT22;31063;48.356;10.896;2022-08-19T15:11:35;17.60;99.90
45329;DHT22;31063;48.356;10.896;2022-08-19T15:14:02;17.60;99.90
45329;DHT22;31063;48.356;10.896;2022-08-19T15:16:27;17.60;99.90
45329;DHT22;31063;48.356;10.896;2022-08-19T15:18:54;17.60;99.90
45329;DHT22;31063;48.356;10.896;2022-08-19T15:21:20;17.60;99.90
45329;DHT22;31063;48.356;10.896;2022-08-19T15:23:46;17.60;99.90
45329;DHT22;31063;48.356;10.896;2022-08-19T15:26:13;17.60;99.90
45329;DHT22;31063;48.356;10.896;2022-08-19T15:28:39;17.60;99.90
45329;DHT22;31063;48.356;10.896;2022-08-19T15:31:05;17.60;99.90